sensor_id;sensor_type;location;lat;lon;timestamp;P1;durP1;ratioP1;P2;durP2;ratioP2
10313;SDS011;5202;49.138;10.090;2022-10-03T00:02:32;13.53;;;10.87;;
10313;SDS011;5202;49.138;10.090;2022-10-03T00:05:31;15.10;;;10.70;;
10313;SDS011;5202;49.138;10.090;2022-10-03T00:08:15;15.80;;;10.67;;
10313;SDS011;5202;49.138;10.090;2022-10-03T00:10:59;14.23;;;10.30;;
10313;SDS011;5202;49.138;10.090;2022-10-03T00:13:41;13.70;;;10.33;;
10313;SDS011;5202;49.138;10.090;2022-10-03T00:16:17;13.43;;;10.83;;
10313;SDS011;5202;49.138;10.090;2022-10-03T00:18:56;13.00;;;10.30;;
10313;SDS011;5202;49.138;10.090;2022-10-03T00:21:36;15.67;;;10.67;;
10313;SDS011;5202;49.138;10.090;2022-10-03T00:24:25;14.63;;;11.57;;
10313;SDS011;5202;49.138;10.090;2022-10-03T00:27:12;13.73;;;10.93;;
10313;SDS011;5202;49.138;10.090;2022-10-03T00:29:49;18.13;;;11.17;;
10313;SDS011;5202;49.138;10.090;2022-10-03T00:32:34;16.73;;;11.03;;
10313;SDS011;5202;49.138;10.090;2022-10-03T00:35:17;18.10;;;10.80;;
10313;SDS011;5202;49.138;10.090;2022-10-03T00:38:00;14.73;;;10.40;;
10313;SDS011;5202;49.138;10.090;2022-10-03T00:40:52;16.33;;;11.63;;
10313;SDS011;5202;49.138;10.090;2022-10-03T00:50:20;13.73;;;10.93;;
10313;SDS011;5202;49.138;10.090;2022-10-03T00:53:11;21.60;;;12.10;;
10313;SDS011;5202;49.138;10.090;2022-10-03T00:56:02;19.47;;;11.53;;
10313;SDS011;5202;49.138;10.090;2022-10-03T00:58:52;14.20;;;11.00;;
10313;SDS011;5202;49.138;10.090;2022-10-03T01:01:36;21.50;;;11.60;;
10313;SDS011;5202;49.138;10.090;2022-10-03T01:07:29;18.63;;;11.70;;
10313;SDS011;5202;49.138;10.090;2022-10-03T01:10:18;16.93;;;12.10;;
10313;SDS011;5202;49.138;10.090;2022-10-03T01:12:56;18.50;;;12.50;;
10313;SDS011;5202;49.138;10.090;2022-10-03T01:15:55;20.30;;;13.07;;
10313;SDS011;5202;49.138;10.090;2022-10-03T01:18:38;21.23;;;12.53;;
10313;SDS011;5202;49.138;10.090;2022-10-03T01:21:27;23.37;;;13.77;;
10313;SDS011;5202;49.138;10.090;2022-10-03T01:27:05;22.97;;;13.20;;
10313;SDS011;5202;49.138;10.090;2022-10-03T01:29:42;22.13;;;14.57;;
10313;SDS011;5202;49.138;10.090;2022-10-03T01:32:36;19.60;;;12.83;;
10313;SDS011;5202;49.138;10.090;2022-10-03T01:35:16;20.03;;;13.43;;
10313;SDS011;5202;49.138;10.090;2022-10-03T01:37:56;21.60;;;13.47;;
10313;SDS011;5202;49.138;10.090;2022-10-03T01:40:33;20.10;;;12.73;;
10313;SDS011;5202;49.138;10.090;2022-10-03T01:43:08;19.27;;;13.27;;
10313;SDS011;5202;49.138;10.090;2022-10-03T01:48:40;21.40;;;12.73;;
10313;SDS011;5202;49.138;10.090;2022-10-03T01:51:18;21.70;;;12.80;;
10313;SDS011;5202;49.138;10.090;2022-10-03T01:53:57;21.37;;;12.87;;
10313;SDS011;5202;49.138;10.090;2022-10-03T01:56:40;18.37;;;12.90;;
10313;SDS011;5202;49.138;10.090;2022-10-03T01:59:21;19.20;;;12.33;;
10313;SDS011;5202;49.138;10.090;2022-10-03T02:02:03;22.93;;;12.60;;
10313;SDS011;5202;49.138;10.090;2022-10-03T02:04:44;23.50;;;12.70;;
10313;SDS011;5202;49.138;10.090;2022-10-03T02:07:19;17.77;;;12.13;;
10313;SDS011;5202;49.138;10.090;2022-10-03T02:09:59;22.70;;;12.17;;
10313;SDS011;5202;49.138;10.090;2022-10-03T02:12:36;21.57;;;12.27;;
10313;SDS011;5202;49.138;10.090;2022-10-03T02:15:10;17.90;;;12.70;;
10313;SDS011;5202;49.138;10.090;2022-10-03T02:17:52;18.00;;;11.73;;
10313;SDS011;5202;49.138;10.090;2022-10-03T02:20:27;17.23;;;11.47;;
10313;SDS011;5202;49.138;10.090;2022-10-03T02:23:04;15.30;;;10.90;;
10313;SDS011;5202;49.138;10.090;2022-10-03T02:25:53;19.03;;;11.97;;
10313;SDS011;5202;49.138;10.090;2022-10-03T02:28:34;17.20;;;11.50;;
10313;SDS011;5202;49.138;10.090;2022-10-03T02:34:46;20.80;;;12.50;;
10313;SDS011;5202;49.138;10.090;2022-10-03T02:37:54;20.03;;;12.10;;
10313;SDS011;5202;49.138;10.090;2022-10-03T02:40:44;18.13;;;12.37;;
10313;SDS011;5202;49.138;10.090;2022-10-03T02:53:43;17.13;;;11.87;;
10313;SDS011;5202;49.138;10.090;2022-10-03T02:56:34;23.13;;;13.20;;
10313;SDS011;5202;49.138;10.090;2022-10-03T02:59:36;19.23;;;12.67;;
10313;SDS011;5202;49.138;10.090;2022-10-03T03:12:28;19.43;;;12.23;;
10313;SDS011;5202;49.138;10.090;2022-10-03T03:15:45;20.40;;;12.70;;
10313;SDS011;5202;49.138;10.090;2022-10-03T03:18:49;19.07;;;12.30;;
10313;SDS011;5202;49.138;10.090;2022-10-03T03:21:37;22.97;;;13.67;;
10313;SDS011;5202;49.138;10.090;2022-10-03T03:24:21;15.17;;;11.47;;
10313;SDS011;5202;49.138;10.090;2022-10-03T03:27:15;17.57;;;12.37;;
10313;SDS011;5202;49.138;10.090;2022-10-03T03:30:14;20.47;;;12.60;;
10313;SDS011;5202;49.138;10.090;2022-10-03T03:32:53;20.17;;;12.87;;
10313;SDS011;5202;49.138;10.090;2022-10-03T03:35:36;15.53;;;11.00;;
10313;SDS011;5202;49.138;10.090;2022-10-03T03:38:25;20.33;;;12.73;;
10313;SDS011;5202;49.138;10.090;2022-10-03T03:41:03;15.47;;;12.20;;
10313;SDS011;5202;49.138;10.090;2022-10-03T03:43:52;17.07;;;11.60;;
10313;SDS011;5202;49.138;10.090;2022-10-03T03:47:15;18.97;;;12.07;;
10313;SDS011;5202;49.138;10.090;2022-10-03T03:50:09;20.50;;;12.53;;
10313;SDS011;5202;49.138;10.090;2022-10-03T03:52:54;18.03;;;11.70;;
10313;SDS011;5202;49.138;10.090;2022-10-03T03:55:56;15.03;;;11.20;;
10313;SDS011;5202;49.138;10.090;2022-10-03T03:58:51;16.67;;;11.50;;
10313;SDS011;5202;49.138;10.090;2022-10-03T04:01:36;17.53;;;10.87;;
10313;SDS011;5202;49.138;10.090;2022-10-03T04:07:44;15.93;;;10.17;;
10313;SDS011;5202;49.138;10.090;2022-10-03T04:10:50;15.73;;;10.77;;
10313;SDS011;5202;49.138;10.090;2022-10-03T04:13:41;16.40;;;11.60;;
10313;SDS011;5202;49.138;10.090;2022-10-03T04:16:41;19.03;;;12.40;;
10313;SDS011;5202;49.138;10.090;2022-10-03T04:19:53;17.73;;;12.10;;
10313;SDS011;5202;49.138;10.090;2022-10-03T04:22:40;20.00;;;12.13;;
10313;SDS011;5202;49.138;10.090;2022-10-03T04:25:41;16.87;;;11.73;;
10313;SDS011;5202;49.138;10.090;2022-10-03T04:28:27;18.37;;;11.13;;
10313;SDS011;5202;49.138;10.090;2022-10-03T04:31:25;16.47;;;10.20;;
10313;SDS011;5202;49.138;10.090;2022-10-03T04:34:11;13.50;;;7.23;;
10313;SDS011;5202;49.138;10.090;2022-10-03T04:37:04;17.03;;;7.97;;
10313;SDS011;5202;49.138;10.090;2022-10-03T04:39:46;8.33;;;5.87;;
10313;SDS011;5202;49.138;10.090;2022-10-03T04:42:55;28.30;;;5.53;;
10313;SDS011;5202;49.138;10.090;2022-10-03T04:45:47;7.67;;;5.93;;
10313;SDS011;5202;49.138;10.090;2022-10-03T04:48:32;8.90;;;4.63;;
10313;SDS011;5202;49.138;10.090;2022-10-03T04:51:11;12.30;;;4.73;;
10313;SDS011;5202;49.138;10.090;2022-10-03T04:53:48;5.50;;;4.67;;
10313;SDS011;5202;49.138;10.090;2022-10-03T04:59:25;21.13;;;6.00;;
10313;SDS011;5202;49.138;10.090;2022-10-03T05:02:15;89.00;;;11.33;;
10313;SDS011;5202;49.138;10.090;2022-10-03T05:04:57;37.07;;;7.77;;
10313;SDS011;5202;49.138;10.090;2022-10-03T05:07:44;23.37;;;8.77;;
10313;SDS011;5202;49.138;10.090;2022-10-03T05:10:32;22.80;;;9.53;;
10313;SDS011;5202;49.138;10.090;2022-10-03T05:13:14;24.00;;;10.53;;
10313;SDS011;5202;49.138;10.090;2022-10-03T05:15:58;14.67;;;9.37;;
10313;SDS011;5202;49.138;10.090;2022-10-03T05:18:39;11.00;;;8.90;;
10313;SDS011;5202;49.138;10.090;2022-10-03T05:21:13;29.60;;;9.97;;
10313;SDS011;5202;49.138;10.090;2022-10-03T05:23:52;19.57;;;9.77;;
10313;SDS011;5202;49.138;10.090;2022-10-03T05:26:33;16.30;;;10.63;;
10313;SDS011;5202;49.138;10.090;2022-10-03T05:29:14;29.67;;;11.70;;
10313;SDS011;5202;49.138;10.090;2022-10-03T05:31:54;23.27;;;10.33;;
10313;SDS011;5202;49.138;10.090;2022-10-03T05:34:41;46.57;;;11.97;;
10313;SDS011;5202;49.138;10.090;2022-10-03T05:37:40;32.47;;;10.77;;
10313;SDS011;5202;49.138;10.090;2022-10-03T05:41:01;24.37;;;10.07;;
10313;SDS011;5202;49.138;10.090;2022-10-03T05:43:45;12.23;;;9.33;;
10313;SDS011;5202;49.138;10.090;2022-10-03T05:46:29;14.13;;;7.67;;
10313;SDS011;5202;49.138;10.090;2022-10-03T05:49:17;12.00;;;5.70;;
10313;SDS011;5202;49.138;10.090;2022-10-03T05:52:08;20.80;;;6.87;;
10313;SDS011;5202;49.138;10.090;2022-10-03T05:55:18;9.70;;;7.70;;
10313;SDS011;5202;49.138;10.090;2022-10-03T05:58:05;7.27;;;5.90;;
10313;SDS011;5202;49.138;10.090;2022-10-03T06:01:25;8.03;;;5.93;;
10313;SDS011;5202;49.138;10.090;2022-10-03T06:07:39;7.43;;;5.57;;
10313;SDS011;5202;49.138;10.090;2022-10-03T06:10:43;8.43;;;6.43;;
10313;SDS011;5202;49.138;10.090;2022-10-03T06:13:18;17.83;;;9.00;;
10313;SDS011;5202;49.138;10.090;2022-10-03T06:15:57;12.70;;;9.17;;
10313;SDS011;5202;49.138;10.090;2022-10-03T06:18:41;25.87;;;11.97;;
10313;SDS011;5202;49.138;10.090;2022-10-03T06:21:46;27.87;;;14.70;;
10313;SDS011;5202;49.138;10.090;2022-10-03T06:32:04;10.87;;;8.47;;
10313;SDS011;5202;49.138;10.090;2022-10-03T06:35:26;12.63;;;9.53;;
10313;SDS011;5202;49.138;10.090;2022-10-03T06:38:39;12.77;;;9.77;;
10313;SDS011;5202;49.138;10.090;2022-10-03T06:45:22;16.37;;;10.40;;
10313;SDS011;5202;49.138;10.090;2022-10-03T06:48:26;14.27;;;10.17;;
10313;SDS011;5202;49.138;10.090;2022-10-03T06:51:44;13.67;;;11.07;;
10313;SDS011;5202;49.138;10.090;2022-10-03T06:58:03;15.70;;;9.87;;
10313;SDS011;5202;49.138;10.090;2022-10-03T07:00:56;13.43;;;9.53;;
10313;SDS011;5202;49.138;10.090;2022-10-03T07:03:54;11.27;;;8.90;;
10313;SDS011;5202;49.138;10.090;2022-10-03T07:09:48;15.00;;;10.20;;
10313;SDS011;5202;49.138;10.090;2022-10-03T07:12:52;13.80;;;9.20;;
10313;SDS011;5202;49.138;10.090;2022-10-03T07:22:29;11.70;;;9.00;;
10313;SDS011;5202;49.138;10.090;2022-10-03T07:32:24;20.33;;;9.53;;
10313;SDS011;5202;49.138;10.090;2022-10-03T07:35:28;15.07;;;8.67;;
10313;SDS011;5202;49.138;10.090;2022-10-03T07:38:43;21.47;;;9.40;;
10313;SDS011;5202;49.138;10.090;2022-10-03T07:41:56;17.23;;;9.17;;
10313;SDS011;5202;49.138;10.090;2022-10-03T07:44:46;17.07;;;8.27;;
10313;SDS011;5202;49.138;10.090;2022-10-03T07:50:57;11.83;;;7.70;;
10313;SDS011;5202;49.138;10.090;2022-10-03T07:53:55;16.43;;;6.80;;
10313;SDS011;5202;49.138;10.090;2022-10-03T07:57:04;14.47;;;7.57;;
10313;SDS011;5202;49.138;10.090;2022-10-03T08:00:13;17.23;;;7.93;;
10313;SDS011;5202;49.138;10.090;2022-10-03T08:06:13;9.73;;;5.67;;
10313;SDS011;5202;49.138;10.090;2022-10-03T08:09:06;14.80;;;6.37;;
10313;SDS011;5202;49.138;10.090;2022-10-03T08:15:22;9.63;;;6.43;;
10313;SDS011;5202;49.138;10.090;2022-10-03T08:21:15;11.93;;;5.97;;
10313;SDS011;5202;49.138;10.090;2022-10-03T08:24:02;11.87;;;5.70;;
10313;SDS011;5202;49.138;10.090;2022-10-03T08:27:01;62.17;;;40.67;;
10313;SDS011;5202;49.138;10.090;2022-10-03T08:30:16;16.03;;;8.00;;
10313;SDS011;5202;49.138;10.090;2022-10-03T08:32:54;9.07;;;5.90;;
10313;SDS011;5202;49.138;10.090;2022-10-03T08:38:55;9.30;;;5.03;;
10313;SDS011;5202;49.138;10.090;2022-10-03T08:42:01;8.07;;;4.27;;
10313;SDS011;5202;49.138;10.090;2022-10-03T08:45:19;9.77;;;5.73;;
10313;SDS011;5202;49.138;10.090;2022-10-03T08:48:22;10.83;;;5.10;;
10313;SDS011;5202;49.138;10.090;2022-10-03T08:58:04;7.53;;;4.57;;
10313;SDS011;5202;49.138;10.090;2022-10-03T09:01:10;18.70;;;7.57;;
10313;SDS011;5202;49.138;10.090;2022-10-03T09:07:19;8.73;;;4.03;;
10313;SDS011;5202;49.138;10.090;2022-10-03T09:10:08;7.10;;;4.27;;
10313;SDS011;5202;49.138;10.090;2022-10-03T09:13:17;9.60;;;5.03;;
10313;SDS011;5202;49.138;10.090;2022-10-03T09:19:34;12.27;;;3.63;;
10313;SDS011;5202;49.138;10.090;2022-10-03T09:25:30;7.20;;;3.20;;
10313;SDS011;5202;49.138;10.090;2022-10-03T09:28:38;5.60;;;2.70;;
10313;SDS011;5202;49.138;10.090;2022-10-03T09:31:55;5.97;;;2.90;;
10313;SDS011;5202;49.138;10.090;2022-10-03T09:41:29;9.20;;;3.27;;
10313;SDS011;5202;49.138;10.090;2022-10-03T09:47:15;5.23;;;2.20;;
10313;SDS011;5202;49.138;10.090;2022-10-03T09:56:49;8.03;;;1.90;;
10313;SDS011;5202;49.138;10.090;2022-10-03T10:06:18;6.27;;;1.87;;
10313;SDS011;5202;49.138;10.090;2022-10-03T10:09:10;7.00;;;2.60;;
10313;SDS011;5202;49.138;10.090;2022-10-03T10:12:11;7.43;;;2.37;;
10313;SDS011;5202;49.138;10.090;2022-10-03T10:15:25;6.67;;;2.23;;
10313;SDS011;5202;49.138;10.090;2022-10-03T10:21:43;5.67;;;2.37;;
10313;SDS011;5202;49.138;10.090;2022-10-03T10:24:59;8.60;;;2.20;;
10313;SDS011;5202;49.138;10.090;2022-10-03T10:27:59;4.93;;;2.00;;
10313;SDS011;5202;49.138;10.090;2022-10-03T10:38:23;4.97;;;2.03;;
10313;SDS011;5202;49.138;10.090;2022-10-03T10:47:54;11.23;;;4.90;;
10313;SDS011;5202;49.138;10.090;2022-10-03T10:51:26;10.25;;;5.20;;
10313;SDS011;5202;49.138;10.090;2022-10-03T11:01:27;8.20;;;2.40;;
10313;SDS011;5202;49.138;10.090;2022-10-03T11:04:59;3.80;;;2.00;;
10313;SDS011;5202;49.138;10.090;2022-10-03T11:15:17;7.25;;;1.98;;
10313;SDS011;5202;49.138;10.090;2022-10-03T11:25:50;4.03;;;1.80;;
10313;SDS011;5202;49.138;10.090;2022-10-03T11:36:05;4.17;;;1.90;;
10313;SDS011;5202;49.138;10.090;2022-10-03T11:38:49;4.60;;;1.60;;
10313;SDS011;5202;49.138;10.090;2022-10-03T11:41:31;7.47;;;1.93;;
10313;SDS011;5202;49.138;10.090;2022-10-03T11:44:20;8.00;;;1.90;;
10313;SDS011;5202;49.138;10.090;2022-10-03T11:47:01;6.40;;;4.27;;
10313;SDS011;5202;49.138;10.090;2022-10-03T11:49:52;5.23;;;1.80;;
10313;SDS011;5202;49.138;10.090;2022-10-03T11:52:56;6.43;;;2.10;;
10313;SDS011;5202;49.138;10.090;2022-10-03T11:55:40;8.73;;;2.00;;
10313;SDS011;5202;49.138;10.090;2022-10-03T12:01:26;4.07;;;1.65;;
10313;SDS011;5202;49.138;10.090;2022-10-03T12:04:10;4.97;;;2.03;;
10313;SDS011;5202;49.138;10.090;2022-10-03T12:06:49;6.97;;;2.27;;
10313;SDS011;5202;49.138;10.090;2022-10-03T12:09:54;7.82;;;1.70;;
10313;SDS011;5202;49.138;10.090;2022-10-03T12:12:34;5.23;;;1.70;;
10313;SDS011;5202;49.138;10.090;2022-10-03T12:15:16;3.83;;;1.80;;
10313;SDS011;5202;49.138;10.090;2022-10-03T12:17:59;5.17;;;2.47;;
10313;SDS011;5202;49.138;10.090;2022-10-03T12:20:47;5.13;;;1.97;;
10313;SDS011;5202;49.138;10.090;2022-10-03T12:23:35;7.43;;;2.00;;
10313;SDS011;5202;49.138;10.090;2022-10-03T12:26:27;9.83;;;1.97;;
10313;SDS011;5202;49.138;10.090;2022-10-03T12:29:09;7.43;;;2.50;;
10313;SDS011;5202;49.138;10.090;2022-10-03T12:31:41;6.00;;;2.23;;
10313;SDS011;5202;49.138;10.090;2022-10-03T12:34:32;5.40;;;1.75;;
10313;SDS011;5202;49.138;10.090;2022-10-03T12:37:12;6.22;;;1.83;;
10313;SDS011;5202;49.138;10.090;2022-10-03T12:40:09;6.30;;;1.98;;
10313;SDS011;5202;49.138;10.090;2022-10-03T12:42:47;4.53;;;1.63;;
10313;SDS011;5202;49.138;10.090;2022-10-03T12:45:29;7.40;;;2.27;;
10313;SDS011;5202;49.138;10.090;2022-10-03T12:51:12;5.63;;;2.07;;
10313;SDS011;5202;49.138;10.090;2022-10-03T12:53:54;6.45;;;2.00;;
10313;SDS011;5202;49.138;10.090;2022-10-03T12:56:36;4.97;;;1.92;;
10313;SDS011;5202;49.138;10.090;2022-10-03T12:59:13;4.13;;;1.80;;
10313;SDS011;5202;49.138;10.090;2022-10-03T13:04:57;3.42;;;1.80;;
10313;SDS011;5202;49.138;10.090;2022-10-03T13:07:51;15.57;;;7.70;;
10313;SDS011;5202;49.138;10.090;2022-10-03T13:10:28;6.20;;;1.70;;
10313;SDS011;5202;49.138;10.090;2022-10-03T13:13:10;7.72;;;2.85;;
10313;SDS011;5202;49.138;10.090;2022-10-03T13:15:54;7.15;;;1.63;;
10313;SDS011;5202;49.138;10.090;2022-10-03T13:18:42;5.75;;;2.08;;
10313;SDS011;5202;49.138;10.090;2022-10-03T13:21:18;3.55;;;1.52;;
10313;SDS011;5202;49.138;10.090;2022-10-03T13:24:14;4.63;;;1.73;;
10313;SDS011;5202;49.138;10.090;2022-10-03T13:27:03;3.28;;;1.75;;
10313;SDS011;5202;49.138;10.090;2022-10-03T13:29:52;7.80;;;3.67;;
10313;SDS011;5202;49.138;10.090;2022-10-03T13:32:31;5.93;;;1.60;;
10313;SDS011;5202;49.138;10.090;2022-10-03T13:35:03;4.15;;;1.50;;
10313;SDS011;5202;49.138;10.090;2022-10-03T13:41:32;6.45;;;1.60;;
10313;SDS011;5202;49.138;10.090;2022-10-03T13:44:14;4.95;;;1.73;;
10313;SDS011;5202;49.138;10.090;2022-10-03T13:46:50;4.10;;;1.85;;
10313;SDS011;5202;49.138;10.090;2022-10-03T13:49:24;6.38;;;2.10;;
10313;SDS011;5202;49.138;10.090;2022-10-03T13:51:59;5.47;;;2.80;;
10313;SDS011;5202;49.138;10.090;2022-10-03T13:54:43;6.20;;;2.00;;
10313;SDS011;5202;49.138;10.090;2022-10-03T13:57:36;3.20;;;1.60;;
10313;SDS011;5202;49.138;10.090;2022-10-03T14:00:13;5.40;;;1.87;;
10313;SDS011;5202;49.138;10.090;2022-10-03T14:03:00;4.97;;;1.88;;
10313;SDS011;5202;49.138;10.090;2022-10-03T14:05:48;6.03;;;2.67;;
10313;SDS011;5202;49.138;10.090;2022-10-03T14:08:42;5.97;;;2.17;;
10313;SDS011;5202;49.138;10.090;2022-10-03T14:11:43;6.22;;;1.83;;
10313;SDS011;5202;49.138;10.090;2022-10-03T14:14:33;6.25;;;1.70;;
10313;SDS011;5202;49.138;10.090;2022-10-03T14:17:27;4.63;;;1.92;;
10313;SDS011;5202;49.138;10.090;2022-10-03T14:20:09;4.88;;;1.70;;
10313;SDS011;5202;49.138;10.090;2022-10-03T14:22:55;5.15;;;1.83;;
10313;SDS011;5202;49.138;10.090;2022-10-03T14:25:44;4.50;;;1.45;;
10313;SDS011;5202;49.138;10.090;2022-10-03T14:28:21;3.50;;;1.65;;
10313;SDS011;5202;49.138;10.090;2022-10-03T14:30:58;5.78;;;2.30;;
10313;SDS011;5202;49.138;10.090;2022-10-03T14:33:39;4.47;;;1.90;;
10313;SDS011;5202;49.138;10.090;2022-10-03T14:36:19;5.05;;;1.70;;
10313;SDS011;5202;49.138;10.090;2022-10-03T14:39:15;5.90;;;1.75;;
10313;SDS011;5202;49.138;10.090;2022-10-03T14:42:12;4.55;;;2.28;;
10313;SDS011;5202;49.138;10.090;2022-10-03T14:44:58;4.32;;;1.85;;
10313;SDS011;5202;49.138;10.090;2022-10-03T14:47:33;5.15;;;1.85;;
10313;SDS011;5202;49.138;10.090;2022-10-03T14:50:11;5.70;;;1.63;;
10313;SDS011;5202;49.138;10.090;2022-10-03T14:52:43;4.28;;;1.88;;
10313;SDS011;5202;49.138;10.090;2022-10-03T14:55:17;8.27;;;2.53;;
10313;SDS011;5202;49.138;10.090;2022-10-03T14:57:56;5.88;;;1.90;;
10313;SDS011;5202;49.138;10.090;2022-10-03T15:00:37;4.50;;;1.80;;
10313;SDS011;5202;49.138;10.090;2022-10-03T15:03:23;4.15;;;1.80;;
10313;SDS011;5202;49.138;10.090;2022-10-03T15:09:02;3.75;;;1.98;;
10313;SDS011;5202;49.138;10.090;2022-10-03T15:11:37;6.93;;;2.40;;
10313;SDS011;5202;49.138;10.090;2022-10-03T15:14:14;3.80;;;1.75;;
10313;SDS011;5202;49.138;10.090;2022-10-03T15:16:44;3.45;;;1.80;;
10313;SDS011;5202;49.138;10.090;2022-10-03T15:19:19;6.20;;;2.10;;
10313;SDS011;5202;49.138;10.090;2022-10-03T15:21:56;2.75;;;1.50;;
10313;SDS011;5202;49.138;10.090;2022-10-03T15:24:31;4.95;;;2.05;;
10313;SDS011;5202;49.138;10.090;2022-10-03T15:27:02;5.32;;;2.70;;
10313;SDS011;5202;49.138;10.090;2022-10-03T15:29:35;18.95;;;13.25;;
10313;SDS011;5202;49.138;10.090;2022-10-03T15:32:05;20.30;;;12.60;;
10313;SDS011;5202;49.138;10.090;2022-10-03T15:34:47;11.43;;;8.43;;
10313;SDS011;5202;49.138;10.090;2022-10-03T15:37:23;12.68;;;4.28;;
10313;SDS011;5202;49.138;10.090;2022-10-03T15:39:57;7.00;;;2.72;;
10313;SDS011;5202;49.138;10.090;2022-10-03T15:42:30;4.50;;;2.50;;
10313;SDS011;5202;49.138;10.090;2022-10-03T15:45:00;5.88;;;2.30;;
10313;SDS011;5202;49.138;10.090;2022-10-03T15:47:32;4.93;;;1.75;;
10313;SDS011;5202;49.138;10.090;2022-10-03T15:50:06;4.25;;;2.05;;
10313;SDS011;5202;49.138;10.090;2022-10-03T15:52:46;6.82;;;3.40;;
10313;SDS011;5202;49.138;10.090;2022-10-03T15:55:19;5.38;;;2.60;;
10313;SDS011;5202;49.138;10.090;2022-10-03T15:57:57;5.07;;;3.13;;
10313;SDS011;5202;49.138;10.090;2022-10-03T16:00:32;5.32;;;2.80;;
10313;SDS011;5202;49.138;10.090;2022-10-03T16:03:07;7.28;;;2.83;;
10313;SDS011;5202;49.138;10.090;2022-10-03T16:05:42;5.93;;;3.60;;
10313;SDS011;5202;49.138;10.090;2022-10-03T16:08:26;6.15;;;2.63;;
10313;SDS011;5202;49.138;10.090;2022-10-03T16:10:58;6.05;;;2.60;;
10313;SDS011;5202;49.138;10.090;2022-10-03T16:13:35;6.45;;;3.90;;
10313;SDS011;5202;49.138;10.090;2022-10-03T16:16:07;7.60;;;3.67;;
10313;SDS011;5202;49.138;10.090;2022-10-03T16:18:44;6.88;;;4.13;;
10313;SDS011;5202;49.138;10.090;2022-10-03T16:21:31;4.15;;;3.10;;
10313;SDS011;5202;49.138;10.090;2022-10-03T16:24:18;8.00;;;4.78;;
10313;SDS011;5202;49.138;10.090;2022-10-03T16:27:05;7.80;;;4.63;;
10313;SDS011;5202;49.138;10.090;2022-10-03T16:29:42;9.50;;;7.47;;
10313;SDS011;5202;49.138;10.090;2022-10-03T16:32:19;10.70;;;7.90;;
10313;SDS011;5202;49.138;10.090;2022-10-03T16:34:51;7.07;;;3.55;;
10313;SDS011;5202;49.138;10.090;2022-10-03T16:37:20;6.03;;;2.60;;
10313;SDS011;5202;49.138;10.090;2022-10-03T16:39:56;6.63;;;3.23;;
10313;SDS011;5202;49.138;10.090;2022-10-03T16:42:34;7.30;;;4.50;;
10313;SDS011;5202;49.138;10.090;2022-10-03T16:45:16;13.33;;;7.90;;
10313;SDS011;5202;49.138;10.090;2022-10-03T16:47:52;13.35;;;7.40;;
10313;SDS011;5202;49.138;10.090;2022-10-03T16:50:42;27.17;;;17.47;;
10313;SDS011;5202;49.138;10.090;2022-10-03T16:53:16;11.33;;;6.50;;
10313;SDS011;5202;49.138;10.090;2022-10-03T16:55:48;10.07;;;5.40;;
10313;SDS011;5202;49.138;10.090;2022-10-03T16:58:26;7.10;;;3.93;;
10313;SDS011;5202;49.138;10.090;2022-10-03T17:00:58;3.53;;;2.20;;
10313;SDS011;5202;49.138;10.090;2022-10-03T17:03:51;7.20;;;2.77;;
10313;SDS011;5202;49.138;10.090;2022-10-03T17:06:27;6.93;;;4.40;;
10313;SDS011;5202;49.138;10.090;2022-10-03T17:09:02;6.57;;;3.63;;
10313;SDS011;5202;49.138;10.090;2022-10-03T17:11:36;9.90;;;6.83;;
10313;SDS011;5202;49.138;10.090;2022-10-03T17:14:07;13.20;;;6.30;;
10313;SDS011;5202;49.138;10.090;2022-10-03T17:16:37;6.73;;;2.60;;
10313;SDS011;5202;49.138;10.090;2022-10-03T17:19:14;10.07;;;5.40;;
10313;SDS011;5202;49.138;10.090;2022-10-03T17:21:51;8.10;;;5.00;;
10313;SDS011;5202;49.138;10.090;2022-10-03T17:24:31;7.43;;;3.30;;
10313;SDS011;5202;49.138;10.090;2022-10-03T17:27:12;7.37;;;2.00;;
10313;SDS011;5202;49.138;10.090;2022-10-03T17:29:49;6.50;;;1.50;;
10313;SDS011;5202;49.138;10.090;2022-10-03T17:32:26;3.77;;;1.90;;
10313;SDS011;5202;49.138;10.090;2022-10-03T17:35:02;4.67;;;2.33;;
10313;SDS011;5202;49.138;10.090;2022-10-03T17:41:10;32.27;;;18.83;;
10313;SDS011;5202;49.138;10.090;2022-10-03T17:43:46;7.27;;;4.57;;
10313;SDS011;5202;49.138;10.090;2022-10-03T17:46:27;19.77;;;13.53;;
10313;SDS011;5202;49.138;10.090;2022-10-03T17:49:06;13.20;;;8.40;;
10313;SDS011;5202;49.138;10.090;2022-10-03T17:51:45;4.80;;;3.40;;
10313;SDS011;5202;49.138;10.090;2022-10-03T17:54:18;4.63;;;2.63;;
10313;SDS011;5202;49.138;10.090;2022-10-03T17:56:52;5.67;;;2.07;;
10313;SDS011;5202;49.138;10.090;2022-10-03T17:59:26;3.77;;;2.50;;
10313;SDS011;5202;49.138;10.090;2022-10-03T18:01:59;9.43;;;2.80;;
10313;SDS011;5202;49.138;10.090;2022-10-03T18:04:42;5.50;;;2.83;;
10313;SDS011;5202;49.138;10.090;2022-10-03T18:07:15;5.47;;;3.00;;
10313;SDS011;5202;49.138;10.090;2022-10-03T18:09:48;3.77;;;2.10;;
10313;SDS011;5202;49.138;10.090;2022-10-03T18:12:21;7.70;;;3.90;;
10313;SDS011;5202;49.138;10.090;2022-10-03T18:15:04;9.27;;;5.77;;
10313;SDS011;5202;49.138;10.090;2022-10-03T18:18:15;6.23;;;4.07;;
10313;SDS011;5202;49.138;10.090;2022-10-03T18:21:09;6.13;;;2.03;;
10313;SDS011;5202;49.138;10.090;2022-10-03T18:23:48;16.37;;;10.43;;
10313;SDS011;5202;49.138;10.090;2022-10-03T18:26:56;5.07;;;3.03;;
10313;SDS011;5202;49.138;10.090;2022-10-03T18:29:36;3.67;;;1.97;;
10313;SDS011;5202;49.138;10.090;2022-10-03T18:32:17;4.10;;;2.57;;
10313;SDS011;5202;49.138;10.090;2022-10-03T18:34:51;4.70;;;2.40;;
10313;SDS011;5202;49.138;10.090;2022-10-03T18:40:33;15.83;;;9.03;;
10313;SDS011;5202;49.138;10.090;2022-10-03T18:43:19;5.50;;;4.40;;
10313;SDS011;5202;49.138;10.090;2022-10-03T18:45:59;9.53;;;3.37;;
10313;SDS011;5202;49.138;10.090;2022-10-03T18:48:39;4.47;;;2.70;;
10313;SDS011;5202;49.138;10.090;2022-10-03T18:51:40;6.37;;;3.30;;
10313;SDS011;5202;49.138;10.090;2022-10-03T18:54:18;8.00;;;3.27;;
10313;SDS011;5202;49.138;10.090;2022-10-03T18:57:02;5.63;;;3.03;;
10313;SDS011;5202;49.138;10.090;2022-10-03T18:59:37;9.47;;;3.60;;
10313;SDS011;5202;49.138;10.090;2022-10-03T19:02:14;6.53;;;2.60;;
10313;SDS011;5202;49.138;10.090;2022-10-03T19:04:51;4.43;;;2.70;;
10313;SDS011;5202;49.138;10.090;2022-10-03T19:07:26;6.50;;;3.20;;
10313;SDS011;5202;49.138;10.090;2022-10-03T19:12:59;23.13;;;11.00;;
10313;SDS011;5202;49.138;10.090;2022-10-03T19:15:39;16.77;;;6.67;;
10313;SDS011;5202;49.138;10.090;2022-10-03T19:18:29;20.00;;;10.13;;
10313;SDS011;5202;49.138;10.090;2022-10-03T19:21:10;15.63;;;8.10;;
10313;SDS011;5202;49.138;10.090;2022-10-03T19:23:46;6.20;;;3.67;;
10313;SDS011;5202;49.138;10.090;2022-10-03T19:26:19;7.07;;;3.90;;
10313;SDS011;5202;49.138;10.090;2022-10-03T19:29:02;3.00;;;2.20;;
10313;SDS011;5202;49.138;10.090;2022-10-03T19:31:34;2.27;;;1.90;;
10313;SDS011;5202;49.138;10.090;2022-10-03T19:34:10;2.13;;;1.80;;
10313;SDS011;5202;49.138;10.090;2022-10-03T19:36:47;1.53;;;1.43;;
10313;SDS011;5202;49.138;10.090;2022-10-03T19:39:18;1.67;;;1.57;;
10313;SDS011;5202;49.138;10.090;2022-10-03T19:41:50;4.17;;;2.90;;
10313;SDS011;5202;49.138;10.090;2022-10-03T19:44:22;4.17;;;2.37;;
10313;SDS011;5202;49.138;10.090;2022-10-03T19:46:56;1.60;;;1.50;;
10313;SDS011;5202;49.138;10.090;2022-10-03T19:49:35;2.70;;;1.93;;
10313;SDS011;5202;49.138;10.090;2022-10-03T19:52:18;4.33;;;2.23;;
10313;SDS011;5202;49.138;10.090;2022-10-03T19:54:53;3.10;;;1.83;;
10313;SDS011;5202;49.138;10.090;2022-10-03T19:57:29;7.03;;;3.20;;
10313;SDS011;5202;49.138;10.090;2022-10-03T20:00:18;7.77;;;5.33;;